Share

Amboy, CA

11:42 AM PDT on April 24, 2014 (GMT -0700)
Twentynine Palms Expeditionary Air Field (KNXP) Elev 2054 ft | 34.30 °N, 116.16 °W | Change Station
Active Advisory: Wind Advisory

Current weather conditions updated 46 minutes ago

Partly Cloudy
Partly Cloudy
73 °F
Feels Like 73 °F
N
6
Wind Variable Wind from Variable
Sunrise 6:00 AM
Sunset 7:22 PM
Moon Waning Crescent

Today is forecast to be Much Warmer than yesterday.

Pressure 29.97 in
Visibility 10.0 miles
Clouds Few 25000 ft
Dew Point 19 °F
Humidity 13%
Rainfall 0.00 in
Snow Depth Not available.
UV 9 out of 16
Pollen 8.00 out of 12
Air Quality Not available.
Flu Activity Sporadic
METAR KNXP 241756Z VRB05KT 10SM FEW250 23/M07 A3005 RMK AO2 SLP148 T02281072 10233 20117 58003 $

More Conditions Fewer Conditions

Pressure 29.97 in
Visibility 10.0 miles
Clouds Few 25000 ft
Dew Point 19 °F
Humidity 13%
Rainfall 0.00 in
Snow Depth Not available.
UV 9 out of 16
Pollen 8.00 out of 12
Air Quality Not available.
Flu Activity Sporadic
METAR KNXP 241756Z VRB05KT 10SM FEW250 23/M07 A3005 RMK AO2 SLP148 T02281072 10233 20117 58003 $

More Conditions Fewer Conditions

10-Day Weather Forecast

Almanac

Astronomy

Apr. 24, 2014 Rise Set
Actual Time 6:00 AM PDT 7:22 PM PDT
Civil Twilight 5:34 AM PDT 7:49 PM PDT
Nautical Twilight 5:02 AM PDT 8:20 PM PDT
Astronomical Twilight 4:29 AM PDT 8:54 PM PDT
Moon 3:02 AM PDT 2:54 PM PDT
Length of Visible Light 14h 14m
Length of Day
13h 21m
Tomorrow will be 1m 57s longer.
Waning Crescent, 23% of the Moon is Illuminated
Today
Waning Crescent
Apr 29
New
May 6
First Quarter
May 14
Full
May 21
Last Quarter

Today's Extremes

State Highs State Lows

Community

  • Sunset at Apalachicola Bay, Florida
    Sunset at Apalachicola Bay, Florida
  • Clouds mov'n in
    Clouds mov'n in
  • Stacked
    Stacked
  • clouds approaching Red Sox Nation
    clouds approaching Red Sox Nation
  • Balance
    Balance

WunderPhotos

Upload Photos

1,704,688 photos uploaded!

Nearby

Air Quality

  Air Quality AQ Index Pollutant
Thursday Good
OZONE
Thursday Good
PM10
Thursday Good
CO
Thursday Good
NO2

Snow Depth

Station Depth Elevation
Virginia Lakes Ridge 16 in 9200 ft
Leavitt Lake 63 in 9400 ft
Sonora Pass 21 in 8800 ft
Summit Meadow 2 in 9122 ft
Poison Flat 1 in 7900 ft

Coastal Water Temperatures

Place Temperature
No Stations Reporting

Earthquake Activity

City Distance Mag. Time & Date
Anza, California 88 miles 2.5 1:19 PM PDT
2014-04-18
Progreso, Mexico 136 miles 3.1 10:44 AM PDT
2014-04-18
Progreso, Mexico 136 miles 2.9 10:32 AM PDT
2014-04-18
Minimum magnitude displayed is 2.5.

Nearby Weather Stations

There are no personal weather stations in this area.

What do you think?

We're not finished. Please let us know what you like, what you don't like, and what you are still missing.